sensor_id;sensor_type;location;lat;lon;timestamp;pressure;altitude;pressure_sealevel;temperature;humidity
16690;BME280;8458;52.220;9.884;2022-08-21T00:02:14;100864.53;;;21.01;64.95
16690;BME280;8458;52.220;9.884;2022-08-21T00:04:41;100855.56;;;20.99;65.25
16690;BME280;8458;52.220;9.884;2022-08-21T00:07:08;100851.75;;;20.94;64.94
16690;BME280;8458;52.220;9.884;2022-08-21T00:09:34;100848.59;;;20.87;65.65
16690;BME280;8458;52.220;9.884;2022-08-21T00:12:01;100844.13;;;20.77;65.80
16690;BME280;8458;52.220;9.884;2022-08-21T00:14:30;100841.28;;;20.69;66.09
16690;BME280;8458;52.220;9.884;2022-08-21T00:16:56;100836.31;;;20.66;66.13
16690;BME280;8458;52.220;9.884;2022-08-21T00:19:23;100833.63;;;20.60;66.42
16690;BME280;8458;52.220;9.884;2022-08-21T00:21:50;100827.16;;;20.51;67.03
16690;BME280;8458;52.220;9.884;2022-08-21T00:24:17;100831.63;;;20.44;67.57
16690;BME280;8458;52.220;9.884;2022-08-21T00:26:44;100836.28;;;20.48;67.42
16690;BME280;8458;52.220;9.884;2022-08-21T00:29:11;100834.09;;;20.45;67.57
16690;BME280;8458;52.220;9.884;2022-08-21T00:31:40;100836.94;;;20.45;67.59
16690;BME280;8458;52.220;9.884;2022-08-21T00:34:07;100834.44;;;20.44;67.85
16690;BME280;8458;52.220;9.884;2022-08-21T00:36:35;100837.25;;;20.44;68.04
16690;BME280;8458;52.220;9.884;2022-08-21T00:39:03;100832.13;;;20.46;67.87
16690;BME280;8458;52.220;9.884;2022-08-21T00:41:30;100826.47;;;20.46;67.99
16690;BME280;8458;52.220;9.884;2022-08-21T00:43:57;100824.00;;;20.44;68.02
16690;BME280;8458;52.220;9.884;2022-08-21T00:46:24;100825.66;;;20.45;68.28
16690;BME280;8458;52.220;9.884;2022-08-21T00:48:52;100825.66;;;20.45;68.04
16690;BME280;8458;52.220;9.884;2022-08-21T00:51:21;100829.63;;;20.44;67.73
16690;BME280;8458;52.220;9.884;2022-08-21T00:53:53;100828.63;;;20.40;67.75
16690;BME280;8458;52.220;9.884;2022-08-21T00:56:21;100828.63;;;20.40;67.69
16690;BME280;8458;52.220;9.884;2022-08-21T00:58:50;100827.63;;;20.36;67.93
16690;BME280;8458;52.220;9.884;2022-08-21T01:01:18;100829.59;;;20.35;67.85
16690;BME280;8458;52.220;9.884;2022-08-21T01:03:45;100832.75;;;20.34;67.89
16690;BME280;8458;52.220;9.884;2022-08-21T01:06:13;100832.91;;;20.29;68.56
16690;BME280;8458;52.220;9.884;2022-08-21T01:08:40;100831.88;;;20.24;68.33
16690;BME280;8458;52.220;9.884;2022-08-21T01:11:07;100834.22;;;20.22;68.27
16690;BME280;8458;52.220;9.884;2022-08-21T01:13:36;100830.38;;;20.18;68.43
16690;BME280;8458;52.220;9.884;2022-08-21T01:16:04;100831.19;;;20.10;68.92
16690;BME280;8458;52.220;9.884;2022-08-21T01:18:34;100840.25;;;19.98;69.62
16690;BME280;8458;52.220;9.884;2022-08-21T01:21:08;100835.91;;;19.92;69.38
16690;BME280;8458;52.220;9.884;2022-08-21T01:23:37;100835.09;;;19.92;69.00
16690;BME280;8458;52.220;9.884;2022-08-21T01:26:05;100838.88;;;19.87;68.51
16690;BME280;8458;52.220;9.884;2022-08-21T01:28:34;100843.47;;;19.83;68.73
16690;BME280;8458;52.220;9.884;2022-08-21T01:31:05;100841.84;;;19.82;68.67
16690;BME280;8458;52.220;9.884;2022-08-21T01:33:33;100840.75;;;19.69;69.21
16690;BME280;8458;52.220;9.884;2022-08-21T01:35:59;100841.50;;;19.52;69.34
16690;BME280;8458;52.220;9.884;2022-08-21T01:38:27;100844.88;;;19.17;70.77
16690;BME280;8458;52.220;9.884;2022-08-21T01:40:54;100849.50;;;19.13;71.35
16690;BME280;8458;52.220;9.884;2022-08-21T01:43:20;100843.88;;;19.13;71.28
16690;BME280;8458;52.220;9.884;2022-08-21T01:45:47;100843.75;;;19.19;71.14
16690;BME280;8458;52.220;9.884;2022-08-21T01:48:13;100839.78;;;19.20;71.47
16690;BME280;8458;52.220;9.884;2022-08-21T01:50:40;100846.94;;;19.26;71.17
16690;BME280;8458;52.220;9.884;2022-08-21T01:53:06;100847.13;;;19.29;71.30
16690;BME280;8458;52.220;9.884;2022-08-21T01:55:34;100832.38;;;19.24;71.42
16690;BME280;8458;52.220;9.884;2022-08-21T01:58:01;100835.72;;;19.26;71.56
16690;BME280;8458;52.220;9.884;2022-08-21T02:00:27;100840.47;;;19.25;71.46
16690;BME280;8458;52.220;9.884;2022-08-21T02:02:54;100833.00;;;19.21;71.58
16690;BME280;8458;52.220;9.884;2022-08-21T02:05:21;100833.41;;;19.28;71.61
16690;BME280;8458;52.220;9.884;2022-08-21T02:07:50;100838.38;;;19.31;71.45
16690;BME280;8458;52.220;9.884;2022-08-21T02:10:21;100834.09;;;19.33;71.38
16690;BME280;8458;52.220;9.884;2022-08-21T02:12:49;100828.81;;;19.32;71.88
16690;BME280;8458;52.220;9.884;2022-08-21T02:15:16;100827.13;;;19.31;71.91
16690;BME280;8458;52.220;9.884;2022-08-21T02:17:47;100818.19;;;19.29;72.16
16690;BME280;8458;52.220;9.884;2022-08-21T02:20:16;100824.66;;;19.29;72.65
16690;BME280;8458;52.220;9.884;2022-08-21T02:22:43;100818.19;;;19.29;72.70
16690;BME280;8458;52.220;9.884;2022-08-21T02:25:10;100818.69;;;19.31;72.33
16690;BME280;8458;52.220;9.884;2022-08-21T02:27:38;100815.88;;;19.31;72.62
16690;BME280;8458;52.220;9.884;2022-08-21T02:30:10;100817.66;;;19.27;72.65
16690;BME280;8458;52.220;9.884;2022-08-21T02:32:37;100814.84;;;19.27;72.58
16690;BME280;8458;52.220;9.884;2022-08-21T02:35:04;100806.44;;;19.27;72.48
16690;BME280;8458;52.220;9.884;2022-08-21T02:37:32;100801.97;;;19.26;72.35
16690;BME280;8458;52.220;9.884;2022-08-21T02:39:58;100803.75;;;19.22;72.60
16690;BME280;8458;52.220;9.884;2022-08-21T02:42:25;100806.56;;;19.22;72.52
16690;BME280;8458;52.220;9.884;2022-08-21T02:44:51;100802.41;;;19.19;72.98
16690;BME280;8458;52.220;9.884;2022-08-21T02:47:19;100803.03;;;19.16;72.83
16690;BME280;8458;52.220;9.884;2022-08-21T02:49:46;100795.56;;;19.11;72.75
16690;BME280;8458;52.220;9.884;2022-08-21T02:52:12;100793.41;;;19.08;72.80
16690;BME280;8458;52.220;9.884;2022-08-21T02:54:39;100800.19;;;19.07;73.05
16690;BME280;8458;52.220;9.884;2022-08-21T02:57:06;100793.53;;;19.03;73.32
16690;BME280;8458;52.220;9.884;2022-08-21T02:59:33;100795.84;;;19.01;73.27
16690;BME280;8458;52.220;9.884;2022-08-21T03:01:59;100807.53;;;18.94;73.08
16690;BME280;8458;52.220;9.884;2022-08-21T03:04:27;100797.78;;;18.92;72.83
16690;BME280;8458;52.220;9.884;2022-08-21T03:06:54;100791.22;;;18.83;73.46
16690;BME280;8458;52.220;9.884;2022-08-21T03:09:20;100798.44;;;18.75;73.64
16690;BME280;8458;52.220;9.884;2022-08-21T03:11:47;100795.72;;;18.70;74.28
16690;BME280;8458;52.220;9.884;2022-08-21T03:14:13;100793.75;;;18.70;74.18
16690;BME280;8458;52.220;9.884;2022-08-21T03:16:40;100796.56;;;18.70;73.99
16690;BME280;8458;52.220;9.884;2022-08-21T03:19:07;100794.41;;;18.67;74.19
16690;BME280;8458;52.220;9.884;2022-08-21T03:21:35;100799.78;;;18.63;74.08
16690;BME280;8458;52.220;9.884;2022-08-21T03:24:02;100802.81;;;18.67;73.98
16690;BME280;8458;52.220;9.884;2022-08-21T03:26:29;100801.59;;;18.59;74.63
16690;BME280;8458;52.220;9.884;2022-08-21T03:28:56;100798.47;;;18.61;75.03
16690;BME280;8458;52.220;9.884;2022-08-21T03:31:22;100796.81;;;18.60;75.28
16690;BME280;8458;52.220;9.884;2022-08-21T03:33:49;100796.81;;;18.60;75.21
16690;BME280;8458;52.220;9.884;2022-08-21T03:36:16;100796.38;;;18.53;75.27
16690;BME280;8458;52.220;9.884;2022-08-21T03:38:44;100803.69;;;18.54;75.30
16690;BME280;8458;52.220;9.884;2022-08-21T03:41:10;100798.19;;;18.49;75.33
16690;BME280;8458;52.220;9.884;2022-08-21T03:43:37;100796.84;;;18.46;75.28
16690;BME280;8458;52.220;9.884;2022-08-21T03:46:05;100801.63;;;18.45;75.68
16690;BME280;8458;52.220;9.884;2022-08-21T03:48:32;100795.59;;;18.38;76.04
16690;BME280;8458;52.220;9.884;2022-08-21T03:50:59;100801.84;;;18.35;76.08
16690;BME280;8458;52.220;9.884;2022-08-21T03:53:27;100794.78;;;18.38;75.86
16690;BME280;8458;52.220;9.884;2022-08-21T03:55:55;100800.84;;;18.31;76.34
16690;BME280;8458;52.220;9.884;2022-08-21T03:58:25;100810.19;;;18.26;75.95
16690;BME280;8458;52.220;9.884;2022-08-21T04:00:54;100811.84;;;18.27;75.76
16690;BME280;8458;52.220;9.884;2022-08-21T04:03:21;100820.47;;;18.31;75.87
16690;BME280;8458;52.220;9.884;2022-08-21T04:05:48;100818.31;;;18.28;76.04
16690;BME280;8458;52.220;9.884;2022-08-21T04:08:16;100814.31;;;18.29;76.44
16690;BME280;8458;52.220;9.884;2022-08-21T04:10:45;100811.03;;;18.27;76.47
16690;BME280;8458;52.220;9.884;2022-08-21T04:13:14;100812.69;;;18.28;76.59
16690;BME280;8458;52.220;9.884;2022-08-21T04:15:40;100808.72;;;18.29;76.50
16690;BME280;8458;52.220;9.884;2022-08-21T04:18:07;100821.09;;;18.28;76.37
16690;BME280;8458;52.220;9.884;2022-08-21T04:20:35;100819.25;;;18.23;76.53
16690;BME280;8458;52.220;9.884;2022-08-21T04:23:02;100825.16;;;18.22;76.27
16690;BME280;8458;52.220;9.884;2022-08-21T04:25:29;100819.56;;;18.22;76.74
16690;BME280;8458;52.220;9.884;2022-08-21T04:27:56;100826.81;;;18.23;76.84
16690;BME280;8458;52.220;9.884;2022-08-21T04:30:24;100824.00;;;18.23;77.14
16690;BME280;8458;52.220;9.884;2022-08-21T04:32:51;100818.50;;;18.18;77.19
16690;BME280;8458;52.220;9.884;2022-08-21T04:35:21;100813.00;;;18.13;77.23
16690;BME280;8458;52.220;9.884;2022-08-21T04:37:48;100829.84;;;18.13;77.53
16690;BME280;8458;52.220;9.884;2022-08-21T04:40:17;100824.13;;;18.18;77.46
16690;BME280;8458;52.220;9.884;2022-08-21T04:42:46;100830.16;;;18.11;77.74
16690;BME280;8458;52.220;9.884;2022-08-21T04:45:17;100824.13;;;18.18;77.52
16690;BME280;8458;52.220;9.884;2022-08-21T04:47:47;100829.63;;;18.23;76.85
16690;BME280;8458;52.220;9.884;2022-08-21T04:50:14;100822.38;;;18.22;77.17
16690;BME280;8458;52.220;9.884;2022-08-21T04:52:40;100824.00;;;18.23;77.26
16690;BME280;8458;52.220;9.884;2022-08-21T04:55:07;100829.00;;;18.26;76.94
16690;BME280;8458;52.220;9.884;2022-08-21T04:57:34;100835.22;;;18.23;76.77
16690;BME280;8458;52.220;9.884;2022-08-21T05:00:03;100837.00;;;18.19;75.72
16690;BME280;8458;52.220;9.884;2022-08-21T05:02:30;100837.63;;;18.16;75.83
16690;BME280;8458;52.220;9.884;2022-08-21T05:04:59;100838.25;;;18.13;75.83
16690;BME280;8458;52.220;9.884;2022-08-21T05:07:28;100836.16;;;18.04;75.92
16690;BME280;8458;52.220;9.884;2022-08-21T05:09:56;100828.91;;;18.03;76.25
16690;BME280;8458;52.220;9.884;2022-08-21T05:12:24;100834.72;;;18.07;76.76
16690;BME280;8458;52.220;9.884;2022-08-21T05:14:51;100837.22;;;18.08;77.09
16690;BME280;8458;52.220;9.884;2022-08-21T05:17:17;100836.41;;;18.08;77.52
16690;BME280;8458;52.220;9.884;2022-08-21T05:19:44;100842.81;;;18.08;77.99
16690;BME280;8458;52.220;9.884;2022-08-21T05:22:18;100834.28;;;18.14;78.05
16690;BME280;8458;52.220;9.884;2022-08-21T05:24:45;100838.47;;;18.02;78.87
16690;BME280;8458;52.220;9.884;2022-08-21T05:27:12;100836.09;;;17.96;79.64
16690;BME280;8458;52.220;9.884;2022-08-21T05:29:38;100835.78;;;17.97;80.05
16690;BME280;8458;52.220;9.884;2022-08-21T05:32:08;100836.59;;;17.98;79.47
16690;BME280;8458;52.220;9.884;2022-08-21T05:34:35;100837.53;;;17.93;79.40
16690;BME280;8458;52.220;9.884;2022-08-21T05:37:02;100840.22;;;17.98;78.25
16690;BME280;8458;52.220;9.884;2022-08-21T05:39:30;100847.16;;;17.87;79.04
16690;BME280;8458;52.220;9.884;2022-08-21T05:41:57;100839.66;;;17.82;79.53
16690;BME280;8458;52.220;9.884;2022-08-21T05:44:23;100840.72;;;17.86;79.20
16690;BME280;8458;52.220;9.884;2022-08-21T05:46:50;100838.53;;;17.83;79.55
16690;BME280;8458;52.220;9.884;2022-08-21T05:49:16;100838.16;;;17.90;80.01
16690;BME280;8458;52.220;9.884;2022-08-21T05:51:43;100837.00;;;17.91;80.59
16690;BME280;8458;52.220;9.884;2022-08-21T05:54:09;100836.47;;;17.89;80.77
16690;BME280;8458;52.220;9.884;2022-08-21T05:56:37;100841.06;;;17.99;80.66
16690;BME280;8458;52.220;9.884;2022-08-21T05:59:04;100839.50;;;18.06;80.52
16690;BME280;8458;52.220;9.884;2022-08-21T06:01:30;100845.53;;;18.14;80.79
16690;BME280;8458;52.220;9.884;2022-08-21T06:03:57;100847.38;;;18.18;80.83
16690;BME280;8458;52.220;9.884;2022-08-21T06:06:23;100838.25;;;18.26;80.43
16690;BME280;8458;52.220;9.884;2022-08-21T06:08:50;100842.81;;;18.36;79.48
16690;BME280;8458;52.220;9.884;2022-08-21T06:11:17;100834.47;;;18.45;79.59
16690;BME280;8458;52.220;9.884;2022-08-21T06:13:45;100844.66;;;18.55;78.71
16690;BME280;8458;52.220;9.884;2022-08-21T06:16:14;100840.06;;;18.59;79.18
16690;BME280;8458;52.220;9.884;2022-08-21T06:18:42;100847.22;;;18.65;79.63
16690;BME280;8458;52.220;9.884;2022-08-21T06:21:08;100838.38;;;18.72;79.59
16690;BME280;8458;52.220;9.884;2022-08-21T06:23:36;100842.72;;;18.78;79.00
16690;BME280;8458;52.220;9.884;2022-08-21T06:26:04;100846.88;;;18.80;78.75
16690;BME280;8458;52.220;9.884;2022-08-21T06:28:32;100843.66;;;18.87;78.24
16690;BME280;8458;52.220;9.884;2022-08-21T06:31:00;100843.72;;;18.96;78.27
16690;BME280;8458;52.220;9.884;2022-08-21T06:33:27;100850.88;;;19.02;78.17
16690;BME280;8458;52.220;9.884;2022-08-21T06:35:53;100851.41;;;19.04;78.38
16690;BME280;8458;52.220;9.884;2022-08-21T06:38:20;100852.94;;;19.10;78.43
16690;BME280;8458;52.220;9.884;2022-08-21T06:40:46;100857.91;;;18.91;79.75
16690;BME280;8458;52.220;9.884;2022-08-21T06:43:15;100862.50;;;18.59;82.11
16690;BME280;8458;52.220;9.884;2022-08-21T06:45:41;100860.91;;;18.44;84.03
16690;BME280;8458;52.220;9.884;2022-08-21T06:48:09;100864.66;;;18.39;83.92
16690;BME280;8458;52.220;9.884;2022-08-21T06:50:36;100866.84;;;18.28;84.36
16690;BME280;8458;52.220;9.884;2022-08-21T06:53:06;100865.28;;;18.22;86.12
16690;BME280;8458;52.220;9.884;2022-08-21T06:55:33;100869.44;;;18.25;86.26
16690;BME280;8458;52.220;9.884;2022-08-21T06:58:00;100857.91;;;18.13;86.03
16690;BME280;8458;52.220;9.884;2022-08-21T07:00:27;100860.72;;;18.13;86.02
16690;BME280;8458;52.220;9.884;2022-08-21T07:02:54;100868.72;;;18.19;86.30
16690;BME280;8458;52.220;9.884;2022-08-21T07:05:25;100852.91;;;18.23;86.76
16690;BME280;8458;52.220;9.884;2022-08-21T07:07:52;100859.03;;;18.39;86.48
16690;BME280;8458;52.220;9.884;2022-08-21T07:10:18;100855.88;;;18.55;86.47
16690;BME280;8458;52.220;9.884;2022-08-21T07:12:45;100845.94;;;18.71;86.16
16690;BME280;8458;52.220;9.884;2022-08-21T07:15:11;100844.00;;;18.86;86.07
16690;BME280;8458;52.220;9.884;2022-08-21T07:17:38;100839.63;;;19.02;85.28
16690;BME280;8458;52.220;9.884;2022-08-21T07:20:05;100834.50;;;19.18;84.71
16690;BME280;8458;52.220;9.884;2022-08-21T07:22:35;100840.03;;;19.32;83.73
16690;BME280;8458;52.220;9.884;2022-08-21T07:25:03;100828.91;;;19.49;81.35
16690;BME280;8458;52.220;9.884;2022-08-21T07:27:30;100831.81;;;19.67;81.19
16690;BME280;8458;52.220;9.884;2022-08-21T07:29:57;100829.38;;;19.74;79.54
16690;BME280;8458;52.220;9.884;2022-08-21T07:32:24;100831.78;;;19.90;78.71
16690;BME280;8458;52.220;9.884;2022-08-21T07:34:51;100817.94;;;20.02;78.74
16690;BME280;8458;52.220;9.884;2022-08-21T07:37:18;100818.91;;;20.06;77.77
16690;BME280;8458;52.220;9.884;2022-08-21T07:39:46;100822.09;;;20.13;77.59
16690;BME280;8458;52.220;9.884;2022-08-21T07:42:14;100819.47;;;20.26;78.11
16690;BME280;8458;52.220;9.884;2022-08-21T07:44:40;100825.31;;;20.38;77.15
16690;BME280;8458;52.220;9.884;2022-08-21T07:47:07;100817.53;;;20.44;77.50
16690;BME280;8458;52.220;9.884;2022-08-21T07:49:33;100815.38;;;20.49;75.51
16690;BME280;8458;52.220;9.884;2022-08-21T07:52:00;100816.38;;;20.53;76.17
16690;BME280;8458;52.220;9.884;2022-08-21T07:54:26;100818.38;;;20.62;74.00
16690;BME280;8458;52.220;9.884;2022-08-21T07:56:54;100805.16;;;20.62;75.31
16690;BME280;8458;52.220;9.884;2022-08-21T07:59:21;100807.16;;;20.79;74.03
16690;BME280;8458;52.220;9.884;2022-08-21T08:01:47;100816.13;;;20.81;73.24
16690;BME280;8458;52.220;9.884;2022-08-21T08:04:14;100812.47;;;20.89;74.09
16690;BME280;8458;52.220;9.884;2022-08-21T08:06:41;100809.28;;;21.08;72.57
16690;BME280;8458;52.220;9.884;2022-08-21T08:09:08;100809.09;;;21.22;72.08
16690;BME280;8458;52.220;9.884;2022-08-21T08:11:35;100817.69;;;21.35;72.62
16690;BME280;8458;52.220;9.884;2022-08-21T08:14:04;100809.59;;;21.51;71.52
16690;BME280;8458;52.220;9.884;2022-08-21T08:16:31;100815.69;;;21.61;72.82
16690;BME280;8458;52.220;9.884;2022-08-21T08:18:57;100812.81;;;21.79;72.59
16690;BME280;8458;52.220;9.884;2022-08-21T08:21:24;100800.47;;;21.92;71.35
16690;BME280;8458;52.220;9.884;2022-08-21T08:23:51;100804.00;;;22.10;70.12
16690;BME280;8458;52.220;9.884;2022-08-21T08:26:18;100801.94;;;22.28;69.71
16690;BME280;8458;52.220;9.884;2022-08-21T08:28:45;100794.25;;;22.37;67.97
16690;BME280;8458;52.220;9.884;2022-08-21T08:31:14;100804.25;;;21.96;67.28
16690;BME280;8458;52.220;9.884;2022-08-21T08:33:41;100806.84;;;22.10;68.58
16690;BME280;8458;52.220;9.884;2022-08-21T08:36:12;100796.50;;;22.23;66.73
16690;BME280;8458;52.220;9.884;2022-08-21T08:38:39;100802.72;;;22.37;67.80
16690;BME280;8458;52.220;9.884;2022-08-21T08:41:10;100803.59;;;22.59;66.54
16690;BME280;8458;52.220;9.884;2022-08-21T08:43:38;100795.59;;;22.61;64.67
16690;BME280;8458;52.220;9.884;2022-08-21T08:46:11;100801.09;;;22.79;63.72
16690;BME280;8458;52.220;9.884;2022-08-21T08:48:49;100797.22;;;23.04;62.95
16690;BME280;8458;52.220;9.884;2022-08-21T08:51:21;100793.19;;;23.26;63.86
16690;BME280;8458;52.220;9.884;2022-08-21T08:53:51;100787.91;;;23.37;63.32
16690;BME280;8458;52.220;9.884;2022-08-21T08:56:27;100782.06;;;23.42;60.28
16690;BME280;8458;52.220;9.884;2022-08-21T08:58:57;100786.34;;;23.61;60.26
16690;BME280;8458;52.220;9.884;2022-08-21T09:01:25;100785.97;;;23.75;59.65
16690;BME280;8458;52.220;9.884;2022-08-21T09:03:53;100779.75;;;23.81;58.68
16690;BME280;8458;52.220;9.884;2022-08-21T09:06:37;100782.13;;;24.04;57.77
16690;BME280;8458;52.220;9.884;2022-08-21T09:09:18;100778.81;;;24.14;57.37
16690;BME280;8458;52.220;9.884;2022-08-21T09:11:52;100779.97;;;23.64;55.28
16690;BME280;8458;52.220;9.884;2022-08-21T09:14:27;100782.94;;;23.80;55.94
16690;BME280;8458;52.220;9.884;2022-08-21T09:17:02;100773.63;;;24.16;56.07
16690;BME280;8458;52.220;9.884;2022-08-21T09:19:46;100774.19;;;24.47;55.48
16690;BME280;8458;52.220;9.884;2022-08-21T09:22:22;100773.78;;;24.73;55.10
16690;BME280;8458;52.220;9.884;2022-08-21T09:24:59;100771.41;;;25.03;55.02
16690;BME280;8458;52.220;9.884;2022-08-21T09:27:28;100774.38;;;25.23;54.02
16690;BME280;8458;52.220;9.884;2022-08-21T09:29:56;100774.19;;;25.44;54.64
16690;BME280;8458;52.220;9.884;2022-08-21T09:32:26;100777.50;;;24.90;48.17
16690;BME280;8458;52.220;9.884;2022-08-21T09:35:03;100772.88;;;24.97;48.77
16690;BME280;8458;52.220;9.884;2022-08-21T09:37:32;100769.03;;;25.05;47.86
16690;BME280;8458;52.220;9.884;2022-08-21T09:39:59;100766.03;;;24.86;47.31
16690;BME280;8458;52.220;9.884;2022-08-21T09:42:27;100772.84;;;24.69;47.79
16690;BME280;8458;52.220;9.884;2022-08-21T09:45:13;100773.06;;;24.76;47.71
16690;BME280;8458;52.220;9.884;2022-08-21T09:47:40;100770.31;;;24.80;48.15
16690;BME280;8458;52.220;9.884;2022-08-21T09:50:10;100773.03;;;24.88;48.10
16690;BME280;8458;52.220;9.884;2022-08-21T09:52:44;100778.63;;;25.01;48.57
16690;BME280;8458;52.220;9.884;2022-08-21T09:55:16;100766.72;;;24.67;47.82
16690;BME280;8458;52.220;9.884;2022-08-21T09:57:58;100768.16;;;24.48;48.63
16690;BME280;8458;52.220;9.884;2022-08-21T10:00:27;100766.25;;;24.65;49.11
16690;BME280;8458;52.220;9.884;2022-08-21T10:03:07;100769.78;;;24.74;47.84
16690;BME280;8458;52.220;9.884;2022-08-21T10:05:37;100762.50;;;24.89;46.97
16690;BME280;8458;52.220;9.884;2022-08-21T10:08:04;100763.13;;;25.27;48.55
16690;BME280;8458;52.220;9.884;2022-08-21T10:10:36;100759.59;;;25.30;46.99
16690;BME280;8458;52.220;9.884;2022-08-21T10:13:07;100758.13;;;24.92;46.34
16690;BME280;8458;52.220;9.884;2022-08-21T10:15:44;100761.22;;;24.86;46.22
16690;BME280;8458;52.220;9.884;2022-08-21T10:18:21;100757.00;;;24.80;45.42
16690;BME280;8458;52.220;9.884;2022-08-21T10:20:56;100747.50;;;24.88;45.98
16690;BME280;8458;52.220;9.884;2022-08-21T10:23:36;100748.88;;;24.95;46.30
16690;BME280;8458;52.220;9.884;2022-08-21T10:26:10;100747.66;;;25.24;45.51
16690;BME280;8458;52.220;9.884;2022-08-21T10:28:47;100752.28;;;25.29;44.44
16690;BME280;8458;52.220;9.884;2022-08-21T10:31:22;100741.16;;;25.52;45.37
16690;BME280;8458;52.220;9.884;2022-08-21T10:34:05;100738.28;;;25.68;45.23
16690;BME280;8458;52.220;9.884;2022-08-21T10:36:40;100746.97;;;25.91;44.98
16690;BME280;8458;52.220;9.884;2022-08-21T10:39:17;100741.22;;;25.55;43.50
16690;BME280;8458;52.220;9.884;2022-08-21T10:42:00;100731.97;;;25.43;44.67
16690;BME280;8458;52.220;9.884;2022-08-21T10:44:34;100737.09;;;25.53;45.12
16690;BME280;8458;52.220;9.884;2022-08-21T10:47:06;100726.75;;;25.45;45.12
16690;BME280;8458;52.220;9.884;2022-08-21T10:49:49;100730.69;;;25.40;44.11
16690;BME280;8458;52.220;9.884;2022-08-21T10:52:36;100730.41;;;25.45;44.98
16690;BME280;8458;52.220;9.884;2022-08-21T10:55:12;100724.03;;;25.64;43.97
16690;BME280;8458;52.220;9.884;2022-08-21T10:57:42;100726.59;;;25.53;43.81
16690;BME280;8458;52.220;9.884;2022-08-21T11:00:13;100717.59;;;25.83;43.57
16690;BME280;8458;52.220;9.884;2022-08-21T11:02:42;100725.28;;;25.99;43.33
16690;BME280;8458;52.220;9.884;2022-08-21T11:05:14;100723.66;;;25.66;42.80
16690;BME280;8458;52.220;9.884;2022-08-21T11:07:48;100723.47;;;25.58;43.54
16690;BME280;8458;52.220;9.884;2022-08-21T11:10:21;100735.75;;;25.63;44.34
16690;BME280;8458;52.220;9.884;2022-08-21T11:12:52;100729.59;;;25.29;43.63
16690;BME280;8458;52.220;9.884;2022-08-21T11:15:34;100731.13;;;25.42;43.65
16690;BME280;8458;52.220;9.884;2022-08-21T11:18:13;100724.94;;;25.52;43.68
16690;BME280;8458;52.220;9.884;2022-08-21T11:20:46;100719.13;;;25.81;44.83
16690;BME280;8458;52.220;9.884;2022-08-21T11:23:20;100721.09;;;26.28;44.77
16690;BME280;8458;52.220;9.884;2022-08-21T11:25:52;100724.16;;;26.58;42.96
16690;BME280;8458;52.220;9.884;2022-08-21T11:28:24;100719.13;;;26.87;43.37
16690;BME280;8458;52.220;9.884;2022-08-21T11:31:10;100713.78;;;27.05;42.76
16690;BME280;8458;52.220;9.884;2022-08-21T11:33:48;100715.03;;;27.08;42.23
16690;BME280;8458;52.220;9.884;2022-08-21T11:36:21;100713.94;;;26.93;41.07
16690;BME280;8458;52.220;9.884;2022-08-21T11:39:00;100706.66;;;27.15;41.00
16690;BME280;8458;52.220;9.884;2022-08-21T11:41:30;100710.97;;;27.28;41.18
16690;BME280;8458;52.220;9.884;2022-08-21T11:44:06;100707.38;;;27.31;39.75
16690;BME280;8458;52.220;9.884;2022-08-21T11:46:42;100707.53;;;27.19;39.98
16690;BME280;8458;52.220;9.884;2022-08-21T11:49:20;100712.47;;;27.22;39.23
16690;BME280;8458;52.220;9.884;2022-08-21T11:51:55;100713.09;;;27.12;40.98
16690;BME280;8458;52.220;9.884;2022-08-21T11:54:28;100717.47;;;26.86;40.52
16690;BME280;8458;52.220;9.884;2022-08-21T11:56:59;100714.22;;;26.88;40.90
16690;BME280;8458;52.220;9.884;2022-08-21T11:59:35;100713.56;;;26.94;41.11
16690;BME280;8458;52.220;9.884;2022-08-21T12:02:09;100713.84;;;26.89;39.66
16690;BME280;8458;52.220;9.884;2022-08-21T12:04:44;100706.22;;;27.13;39.63
16690;BME280;8458;52.220;9.884;2022-08-21T12:07:16;100698.84;;;27.31;39.96
16690;BME280;8458;52.220;9.884;2022-08-21T12:09:54;100698.56;;;27.63;40.66
16690;BME280;8458;52.220;9.884;2022-08-21T12:12:25;100698.91;;;27.58;39.02
16690;BME280;8458;52.220;9.884;2022-08-21T12:15:14;100700.06;;;27.11;39.59
16690;BME280;8458;52.220;9.884;2022-08-21T12:17:55;100708.53;;;26.88;39.35
16690;BME280;8458;52.220;9.884;2022-08-21T12:23:23;100696.69;;;27.48;39.70
16690;BME280;8458;52.220;9.884;2022-08-21T12:28:41;100702.84;;;27.77;37.78
16690;BME280;8458;52.220;9.884;2022-08-21T12:31:18;100683.59;;;27.43;38.45
16690;BME280;8458;52.220;9.884;2022-08-21T12:33:52;100694.63;;;27.71;39.30
16690;BME280;8458;52.220;9.884;2022-08-21T12:36:22;100701.41;;;27.90;40.06
16690;BME280;8458;52.220;9.884;2022-08-21T12:38:52;100698.06;;;28.07;38.97
16690;BME280;8458;52.220;9.884;2022-08-21T12:41:22;100699.47;;;27.94;39.35
16690;BME280;8458;52.220;9.884;2022-08-21T12:43:57;100695.50;;;27.76;39.09
16690;BME280;8458;52.220;9.884;2022-08-21T12:46:30;100701.59;;;27.51;38.11
16690;BME280;8458;52.220;9.884;2022-08-21T12:49:03;100680.25;;;27.38;39.97
16690;BME280;8458;52.220;9.884;2022-08-21T12:51:42;100687.47;;;27.12;39.01
16690;BME280;8458;52.220;9.884;2022-08-21T12:54:22;100684.78;;;27.19;39.46
16690;BME280;8458;52.220;9.884;2022-08-21T12:56:56;100679.75;;;27.32;39.13
16690;BME280;8458;52.220;9.884;2022-08-21T12:59:23;100682.69;;;27.62;40.01
16690;BME280;8458;52.220;9.884;2022-08-21T13:01:50;100685.94;;;27.87;39.34
16690;BME280;8458;52.220;9.884;2022-08-21T13:04:23;100681.16;;;27.68;38.97
16690;BME280;8458;52.220;9.884;2022-08-21T13:06:54;100681.00;;;27.84;38.95
16690;BME280;8458;52.220;9.884;2022-08-21T13:09:28;100685.78;;;28.03;38.44
16690;BME280;8458;52.220;9.884;2022-08-21T13:11:56;100686.72;;;28.11;39.15
16690;BME280;8458;52.220;9.884;2022-08-21T13:14:27;100675.69;;;28.10;38.79
16690;BME280;8458;52.220;9.884;2022-08-21T13:16:56;100683.59;;;28.20;37.79
16690;BME280;8458;52.220;9.884;2022-08-21T13:19:25;100684.06;;;28.56;39.02